createdAt,value
2023-04-08T00:00:29.785Z,61.62
2023-04-08T00:02:56.702Z,61.80
2023-04-08T00:05:23.654Z,61.57
2023-04-08T00:07:50.591Z,61.84
2023-04-08T00:10:17.444Z,61.60
2023-04-08T00:12:44.363Z,61.62
2023-04-08T00:15:11.352Z,61.85
2023-04-08T00:17:38.188Z,61.87
2023-04-08T00:20:05.847Z,62.04
2023-04-08T00:22:32.694Z,61.85
2023-04-08T00:24:59.491Z,61.75
2023-04-08T00:27:26.285Z,61.71
2023-04-08T00:29:53.075Z,61.57
2023-04-08T00:32:19.930Z,61.33
2023-04-08T00:34:46.712Z,61.44
2023-04-08T00:37:13.496Z,61.59
2023-04-08T00:39:40.333Z,61.56
2023-04-08T00:42:07.167Z,61.83
2023-04-08T00:44:34.191Z,61.95
2023-04-08T00:47:01.241Z,61.81
2023-04-08T00:49:28.156Z,61.77
2023-04-08T00:51:55.946Z,62.00
2023-04-08T00:54:23.027Z,62.06
2023-04-08T00:56:49.867Z,62.00
2023-04-08T00:59:18.047Z,62.17
2023-04-08T01:02:08.863Z,62.37
2023-04-08T01:05:00.412Z,62.17
2023-04-08T01:07:42.041Z,63.34
2023-04-08T01:10:15.927Z,63.01
2023-04-08T01:12:50.708Z,62.91
2023-04-08T01:15:18.020Z,63.07
2023-04-08T01:17:46.457Z,63.53
2023-04-08T01:20:15.543Z,63.51
2023-04-08T01:23:00.742Z,63.99
2023-04-08T01:25:36.749Z,63.79
2023-04-08T01:28:12.261Z,64.29
2023-04-08T01:30:40.861Z,64.04
2023-04-08T01:33:08.517Z,64.00
2023-04-08T01:35:36.375Z,64.21
2023-04-08T01:38:06.743Z,64.37
2023-04-08T01:40:35.776Z,64.27
2023-04-08T01:43:05.573Z,64.22
2023-04-08T01:45:32.425Z,64.37
2023-04-08T01:48:00.721Z,64.38
2023-04-08T01:50:29.094Z,64.40
2023-04-08T01:52:57.246Z,64.16
2023-04-08T01:55:25.452Z,64.21
2023-04-08T01:57:53.656Z,64.35
2023-04-08T02:00:26.473Z,64.45
2023-04-08T02:02:54.785Z,64.40
2023-04-08T02:05:21.738Z,64.07
2023-04-08T02:07:48.971Z,64.45
2023-04-08T02:10:16.316Z,64.95
2023-04-08T02:12:44.751Z,66.81
2023-04-08T02:15:13.081Z,67.21
2023-04-08T02:18:14.488Z,68.75
2023-04-08T02:20:48.494Z,69.67
2023-04-08T02:23:23.711Z,69.26
2023-04-08T02:25:51.243Z,69.50
2023-04-08T02:28:19.811Z,66.98
2023-04-08T02:30:52.418Z,66.77
2023-04-08T02:33:22.373Z,66.08
2023-04-08T02:35:55.961Z,65.60
2023-04-08T02:38:24.219Z,65.67
2023-04-08T02:40:51.585Z,65.51
2023-04-08T02:43:18.552Z,65.24
2023-04-08T02:45:46.316Z,65.48
2023-04-08T02:48:13.186Z,64.91
2023-04-08T02:50:41.146Z,64.93
2023-04-08T02:53:09.158Z,64.84
2023-04-08T02:55:36.070Z,65.02
2023-04-08T02:58:02.920Z,64.78
2023-04-08T03:00:29.815Z,64.97
2023-04-08T03:02:57.220Z,64.72
2023-04-08T03:05:26.833Z,64.96
2023-04-08T03:07:53.719Z,64.85
2023-04-08T03:10:20.477Z,64.78
2023-04-08T03:12:47.329Z,64.67
2023-04-08T03:15:14.207Z,64.61
2023-04-08T03:17:41.297Z,64.62
2023-04-08T03:20:09.216Z,64.74
2023-04-08T03:22:37.158Z,64.37
2023-04-08T03:25:04.412Z,64.20
2023-04-08T03:27:31.315Z,63.95
2023-04-08T03:29:58.709Z,64.03
2023-04-08T03:32:25.826Z,64.57
2023-04-08T03:34:52.784Z,64.54
2023-04-08T03:37:19.583Z,65.03
2023-04-08T03:39:46.522Z,65.13
2023-04-08T03:42:13.353Z,65.25
2023-04-08T03:44:40.189Z,64.94
2023-04-08T03:47:07.026Z,64.73
2023-04-08T03:49:33.872Z,65.06
2023-04-08T03:52:00.643Z,64.99
2023-04-08T03:54:27.502Z,65.08
2023-04-08T03:56:54.400Z,65.13
2023-04-08T03:59:21.252Z,64.97
2023-04-08T04:01:48.157Z,64.96
2023-04-08T04:04:16.422Z,64.74
2023-04-08T04:06:43.369Z,65.01
2023-04-08T04:09:11.140Z,64.81
2023-04-08T04:11:38.089Z,64.96
2023-04-08T04:14:04.882Z,64.23
2023-04-08T04:16:32.979Z,64.56
2023-04-08T04:19:00.336Z,64.29
2023-04-08T04:21:27.345Z,64.51
2023-04-08T04:23:54.221Z,64.10
2023-04-08T04:26:21.460Z,64.19
2023-04-08T04:28:48.746Z,64.05
2023-04-08T04:31:26.418Z,64.14
2023-04-08T04:33:53.616Z,64.19
2023-04-08T04:36:20.561Z,64.01
2023-04-08T04:38:50.053Z,64.26
2023-04-08T04:41:17.605Z,64.24
2023-04-08T04:43:44.445Z,64.32
2023-04-08T04:46:11.432Z,64.86
2023-04-08T04:48:38.343Z,65.46
2023-04-08T04:51:05.255Z,64.92
2023-04-08T04:53:32.059Z,65.54
2023-04-08T04:56:01.077Z,65.60
2023-04-08T04:58:28.603Z,65.60
2023-04-08T05:00:56.058Z,65.49
2023-04-08T05:03:23.114Z,65.36
2023-04-08T05:05:54.383Z,65.63
2023-04-08T05:08:21.533Z,65.72
2023-04-08T05:10:50.523Z,65.30
2023-04-08T05:13:20.673Z,65.21
2023-04-08T05:15:47.916Z,65.55
2023-04-08T05:18:15.062Z,65.29
2023-04-08T05:20:42.067Z,65.60
2023-04-08T05:23:09.064Z,65.52
2023-04-08T05:25:36.161Z,65.30
2023-04-08T05:28:03.700Z,65.76
2023-04-08T05:30:30.878Z,65.91
2023-04-08T05:33:00.194Z,65.88
2023-04-08T05:35:28.388Z,65.67
2023-04-08T05:37:55.360Z,65.79
2023-04-08T05:40:22.240Z,66.94
2023-04-08T05:42:49.081Z,66.41
2023-04-08T05:45:16.236Z,66.45
2023-04-08T05:47:43.148Z,66.75
2023-04-08T05:50:11.278Z,66.38
2023-04-08T05:52:43.073Z,66.59
2023-04-08T05:55:09.990Z,66.45
2023-04-08T05:57:37.088Z,66.38
2023-04-08T06:00:06.503Z,66.37
2023-04-08T06:02:33.466Z,66.07
2023-04-08T06:05:01.747Z,66.14
2023-04-08T06:07:28.673Z,66.13
2023-04-08T06:09:55.862Z,66.47
2023-04-08T06:12:22.665Z,66.52
2023-04-08T06:14:55.706Z,66.42
2023-04-08T06:17:23.122Z,66.60
2023-04-08T06:19:50.160Z,66.73
2023-04-08T06:22:16.935Z,66.30
2023-04-08T06:24:43.791Z,66.26
2023-04-08T06:27:10.624Z,65.82
2023-04-08T06:29:37.403Z,65.79
2023-04-08T06:32:04.345Z,64.79
2023-04-08T06:34:31.184Z,64.93
2023-04-08T06:36:58.045Z,64.84
2023-04-08T06:39:24.811Z,63.97
2023-04-08T06:41:52.342Z,64.12
2023-04-08T06:44:19.127Z,64.43
2023-04-08T06:46:46.724Z,63.65
2023-04-08T06:49:13.595Z,63.14
2023-04-08T06:51:40.368Z,63.40
2023-04-08T06:54:07.173Z,62.97
2023-04-08T06:56:33.944Z,62.94
2023-04-08T06:59:01.277Z,62.54
2023-04-08T07:01:28.153Z,62.07
2023-04-08T07:03:55.042Z,61.12
2023-04-08T07:06:21.870Z,61.20
2023-04-08T07:08:49.056Z,59.61
2023-04-08T07:11:16.200Z,59.76
2023-04-08T07:13:43.794Z,58.49
2023-04-08T07:16:10.740Z,57.14
2023-04-08T07:18:37.943Z,56.29
2023-04-08T07:21:05.107Z,55.52
2023-04-08T07:23:31.934Z,55.44
2023-04-08T07:26:04.429Z,55.85
2023-04-08T07:28:32.033Z,55.66
2023-04-08T07:31:10.337Z,55.40
2023-04-08T07:33:37.174Z,55.41
2023-04-08T07:36:04.249Z,55.67
2023-04-08T07:38:31.265Z,54.61
2023-04-08T07:40:58.142Z,55.46
2023-04-08T07:43:24.963Z,54.77
2023-04-08T07:45:52.013Z,55.03
2023-04-08T07:48:18.976Z,55.59
2023-04-08T07:51:08.990Z,55.54
2023-04-08T07:53:34.378Z,55.51
2023-04-08T07:56:03.965Z,55.05
2023-04-08T07:58:32.099Z,55.28
2023-04-08T08:00:59.522Z,55.09
2023-04-08T08:03:27.357Z,55.32
2023-04-08T08:05:54.293Z,55.58
2023-04-08T08:08:21.299Z,54.37
2023-04-08T08:10:48.127Z,53.96
2023-04-08T08:13:17.210Z,52.24
2023-04-08T08:15:44.068Z,51.43
2023-04-08T08:18:10.973Z,51.50
2023-04-08T08:20:37.842Z,50.62
2023-04-08T08:23:04.676Z,51.18
2023-04-08T08:25:31.517Z,51.16
2023-04-08T08:27:58.355Z,51.66
2023-04-08T08:30:26.492Z,53.29
2023-04-08T08:32:53.499Z,52.42
2023-04-08T08:35:20.609Z,53.59
2023-04-08T08:37:47.521Z,53.15
2023-04-08T08:40:15.260Z,53.09
2023-04-08T08:42:42.264Z,53.46
2023-04-08T08:45:09.551Z,53.01
2023-04-08T08:47:36.461Z,52.58
2023-04-08T08:50:03.372Z,51.90
2023-04-08T08:52:30.454Z,51.95
2023-04-08T08:54:59.157Z,52.19
2023-04-08T08:57:26.703Z,53.68
2023-04-08T08:59:53.600Z,52.25
2023-04-08T09:02:32.370Z,52.55
2023-04-08T09:05:04.508Z,52.87
2023-04-08T09:07:36.329Z,52.27
2023-04-08T09:10:04.243Z,52.75
2023-04-08T09:12:31.588Z,53.15
2023-04-08T09:15:09.557Z,53.89
2023-04-08T09:17:39.302Z,55.08
2023-04-08T09:20:14.960Z,56.24
2023-04-08T09:23:00.290Z,57.01
2023-04-08T09:25:34.337Z,56.34
2023-04-08T09:28:02.937Z,55.96
2023-04-08T09:30:32.428Z,55.78
2023-04-08T09:33:00.533Z,55.46
2023-04-08T09:35:27.395Z,55.59
2023-04-08T09:37:54.343Z,56.04
2023-04-08T09:40:22.210Z,56.73
2023-04-08T09:42:53.580Z,54.96
2023-04-08T09:45:20.740Z,55.87
2023-04-08T09:48:19.224Z,56.99
2023-04-08T09:50:51.199Z,57.96
2023-04-08T09:53:31.823Z,58.53
2023-04-08T09:56:00.755Z,58.35
2023-04-08T09:58:39.328Z,58.83
2023-04-08T10:01:08.227Z,58.51
2023-04-08T10:03:40.835Z,58.21
2023-04-08T10:06:08.948Z,57.43
2023-04-08T10:08:36.000Z,57.26
2023-04-08T10:11:03.014Z,56.65
2023-04-08T10:13:30.524Z,56.54
2023-04-08T10:16:25.763Z,56.08
2023-04-08T10:18:57.155Z,55.10
2023-04-08T10:21:37.889Z,56.40
2023-04-08T10:24:11.653Z,55.52
2023-04-08T10:26:44.432Z,54.78
2023-04-08T10:29:29.326Z,55.13
2023-04-08T10:31:57.694Z,56.16
2023-04-08T10:34:26.869Z,56.34
2023-04-08T10:36:56.894Z,56.05
2023-04-08T10:39:27.171Z,55.84
2023-04-08T10:41:54.371Z,56.47
2023-04-08T10:44:23.594Z,56.92
2023-04-08T10:46:53.285Z,56.34
2023-04-08T10:49:21.884Z,56.89
2023-04-08T10:51:49.357Z,57.05
2023-04-08T10:54:18.211Z,58.28
2023-04-08T10:56:50.582Z,58.81
2023-04-08T10:59:27.829Z,58.29
2023-04-08T11:01:55.508Z,57.26
2023-04-08T11:04:23.686Z,57.13
2023-04-08T11:06:51.520Z,57.16
2023-04-08T11:09:18.446Z,58.50
2023-04-08T11:11:46.775Z,59.52
2023-04-08T11:14:14.264Z,59.57
2023-04-08T11:16:41.184Z,58.68
2023-04-08T11:19:08.883Z,58.90
2023-04-08T11:21:37.438Z,59.32
2023-04-08T11:24:16.444Z,59.21
2023-04-08T11:26:43.565Z,59.21
2023-04-08T11:29:14.239Z,59.41
2023-04-08T11:31:42.951Z,59.34
2023-04-08T11:34:10.052Z,58.58
2023-04-08T11:36:36.971Z,57.81
2023-04-08T11:39:09.426Z,56.51
2023-04-08T11:41:38.916Z,56.28
2023-04-08T11:44:07.014Z,57.93
2023-04-08T11:46:35.534Z,56.83
2023-04-08T11:49:07.940Z,57.01
2023-04-08T11:51:55.265Z,56.90
2023-04-08T11:54:32.782Z,57.24
2023-04-08T11:57:00.139Z,56.20
2023-04-08T11:59:29.012Z,57.00
2023-04-08T12:01:56.769Z,57.50
2023-04-08T12:04:23.769Z,58.25
2023-04-08T12:06:50.732Z,58.70
2023-04-08T12:09:17.577Z,58.91
2023-04-08T12:11:44.638Z,58.78
2023-04-08T12:14:11.472Z,58.57
2023-04-08T12:16:38.511Z,58.08
2023-04-08T12:19:05.431Z,59.34
2023-04-08T12:21:33.965Z,59.08
2023-04-08T12:24:01.732Z,59.59
2023-04-08T12:26:28.600Z,58.81
2023-04-08T12:28:55.501Z,58.76
2023-04-08T12:31:22.722Z,58.53
2023-04-08T12:33:49.723Z,58.72
2023-04-08T12:36:17.263Z,59.17
2023-04-08T12:38:44.148Z,59.16
2023-04-08T12:41:11.049Z,59.43
2023-04-08T12:43:39.088Z,58.42
2023-04-08T12:46:06.060Z,58.41
2023-04-08T12:48:33.169Z,58.51
2023-04-08T12:51:00.101Z,58.13
2023-04-08T12:53:27.037Z,58.47
2023-04-08T12:55:57.232Z,56.85
2023-04-08T12:58:27.110Z,56.16
2023-04-08T13:00:53.946Z,55.95
2023-04-08T13:03:21.640Z,55.39
2023-04-08T13:05:48.732Z,54.82
2023-04-08T13:08:16.726Z,55.34
2023-04-08T13:10:43.637Z,55.47
2023-04-08T13:13:10.496Z,55.46
2023-04-08T13:15:38.007Z,54.31
2023-04-08T13:18:04.993Z,53.02
2023-04-08T13:20:31.952Z,53.61
2023-04-08T13:23:00.527Z,54.03
2023-04-08T13:25:27.390Z,53.96
2023-04-08T13:27:54.217Z,53.80
2023-04-08T13:30:21.055Z,54.27
2023-04-08T13:32:48.015Z,54.71
2023-04-08T13:35:14.876Z,55.38
2023-04-08T13:37:42.256Z,55.85
2023-04-08T13:40:09.793Z,55.27
2023-04-08T13:42:37.455Z,55.27
2023-04-08T13:45:04.755Z,55.66
2023-04-08T13:47:31.601Z,56.09
2023-04-08T13:49:58.474Z,56.57
2023-04-08T13:52:26.376Z,57.05
2023-04-08T13:54:53.218Z,56.30
2023-04-08T13:57:20.276Z,55.86
2023-04-08T13:59:53.183Z,55.95
2023-04-08T14:02:20.248Z,55.94
2023-04-08T14:04:47.553Z,56.44
2023-04-08T14:07:14.802Z,55.86
2023-04-08T14:09:41.721Z,55.82
2023-04-08T14:12:08.791Z,56.55
2023-04-08T14:14:35.785Z,57.19
2023-04-08T14:17:02.873Z,56.95
2023-04-08T14:19:29.865Z,56.92
2023-04-08T14:21:57.095Z,57.16
2023-04-08T14:24:24.026Z,56.89
2023-04-08T14:26:51.375Z,56.62
2023-04-08T14:29:18.193Z,57.31
2023-04-08T14:31:45.910Z,57.85
2023-04-08T14:34:13.199Z,57.43
2023-04-08T14:36:40.143Z,57.51
2023-04-08T14:39:06.991Z,57.65
2023-04-08T14:41:33.907Z,58.22
2023-04-08T14:44:00.747Z,58.52
2023-04-08T14:46:29.084Z,58.77
2023-04-08T14:48:56.146Z,59.53
2023-04-08T14:51:23.058Z,60.08
2023-04-08T14:53:49.847Z,59.90
2023-04-08T14:56:16.689Z,59.90
2023-04-08T14:58:43.473Z,60.04
2023-04-08T15:01:11.468Z,59.80
2023-04-08T15:03:38.485Z,60.02
2023-04-08T15:06:05.472Z,60.37
2023-04-08T15:08:32.374Z,61.16
2023-04-08T15:10:59.169Z,60.65
2023-04-08T15:13:26.053Z,60.68
2023-04-08T15:15:54.163Z,60.62
2023-04-08T15:18:21.919Z,60.25
2023-04-08T15:20:48.806Z,60.33
2023-04-08T15:23:15.670Z,60.24
2023-04-08T15:25:42.562Z,60.11
2023-04-08T15:28:09.390Z,60.03
2023-04-08T15:30:36.384Z,60.53
2023-04-08T15:33:04.488Z,60.21
2023-04-08T15:35:32.878Z,60.10
2023-04-08T15:38:00.571Z,60.54
2023-04-08T15:40:27.503Z,60.77
2023-04-08T15:42:54.432Z,60.47
2023-04-08T15:45:22.071Z,60.26
2023-04-08T15:47:49.089Z,60.18
2023-04-08T15:50:17.173Z,59.88
2023-04-08T15:52:44.628Z,59.84
2023-04-08T15:55:11.820Z,59.68
2023-04-08T15:57:39.024Z,59.07
2023-04-08T16:00:10.912Z,58.89
2023-04-08T16:02:38.443Z,59.15
2023-04-08T16:05:05.956Z,58.99
2023-04-08T16:07:32.744Z,59.01
2023-04-08T16:09:59.718Z,59.34
2023-04-08T16:12:26.944Z,58.69
2023-04-08T16:14:53.956Z,58.83
2023-04-08T16:17:20.918Z,58.58
2023-04-08T16:19:47.958Z,58.43
2023-04-08T16:22:15.833Z,58.19
2023-04-08T16:24:42.680Z,58.11
2023-04-08T16:27:09.542Z,58.22
2023-04-08T16:29:36.443Z,58.85
2023-04-08T16:32:04.313Z,59.16
2023-04-08T16:34:31.163Z,60.17
2023-04-08T16:36:58.116Z,60.75
2023-04-08T16:39:24.977Z,60.43
2023-04-08T16:41:51.780Z,60.31
2023-04-08T16:44:18.549Z,60.58
2023-04-08T16:46:45.512Z,60.51
2023-04-08T16:49:14.520Z,60.46
2023-04-08T16:51:42.423Z,60.63
2023-04-08T16:54:09.306Z,61.00
2023-04-08T16:56:36.220Z,60.79
2023-04-08T16:59:03.082Z,60.83
2023-04-08T17:01:30.012Z,61.10
2023-04-08T17:03:57.640Z,60.79
2023-04-08T17:06:24.626Z,61.26
2023-04-08T17:08:51.951Z,60.98
2023-04-08T17:11:19.257Z,60.95
2023-04-08T17:13:46.270Z,61.27
2023-04-08T17:16:17.430Z,61.41
2023-04-08T17:18:45.185Z,61.30
2023-04-08T17:21:13.988Z,61.60
2023-04-08T17:23:40.891Z,62.04
2023-04-08T17:26:09.401Z,61.52
2023-04-08T17:28:36.750Z,61.70
2023-04-08T17:31:03.755Z,62.54
2023-04-08T17:33:30.675Z,62.27
2023-04-08T17:35:59.317Z,62.15
2023-04-08T17:38:26.223Z,62.25
2023-04-08T17:40:53.127Z,62.34
2023-04-08T17:43:19.977Z,62.02
2023-04-08T17:45:46.958Z,62.16
2023-04-08T17:48:13.856Z,62.19
2023-04-08T17:50:40.841Z,61.92
2023-04-08T17:53:07.724Z,62.06
2023-04-08T17:55:34.584Z,62.16
2023-04-08T17:58:02.105Z,61.88
2023-04-08T18:00:29.095Z,61.87
2023-04-08T18:02:56.124Z,61.97
2023-04-08T18:05:23.066Z,62.11
2023-04-08T18:07:51.166Z,62.28
2023-04-08T18:10:18.524Z,62.18
2023-04-08T18:12:45.737Z,62.04
2023-04-08T18:15:12.857Z,62.11
2023-04-08T18:17:39.700Z,62.27
2023-04-08T18:20:07.482Z,61.95
2023-04-08T18:22:34.333Z,62.17
2023-04-08T18:25:01.310Z,62.61
2023-04-08T18:27:28.588Z,62.84
2023-04-08T18:29:55.766Z,62.81
2023-04-08T18:32:22.768Z,62.77
2023-04-08T18:34:53.825Z,62.71
2023-04-08T18:37:21.748Z,63.27
2023-04-08T18:39:48.903Z,63.19
2023-04-08T18:42:16.156Z,63.00
2023-04-08T18:44:43.371Z,63.57
2023-04-08T18:47:11.104Z,63.70
2023-04-08T18:49:41.136Z,63.65
2023-04-08T18:52:08.562Z,63.38
2023-04-08T18:54:35.817Z,63.29
2023-04-08T18:57:03.074Z,63.34
2023-04-08T18:59:30.295Z,63.41
2023-04-08T19:01:58.101Z,62.81
2023-04-08T19:04:25.236Z,62.82
2023-04-08T19:06:52.523Z,62.95
2023-04-08T19:09:19.783Z,62.97
2023-04-08T19:11:48.329Z,63.31
2023-04-08T19:14:15.649Z,63.21
2023-04-08T19:16:42.506Z,62.83
2023-04-08T19:19:09.379Z,63.14
2023-04-08T19:21:37.838Z,62.82
2023-04-08T19:24:06.352Z,62.59
2023-04-08T19:26:33.898Z,62.60
2023-04-08T19:29:01.200Z,62.38
2023-04-08T19:31:28.504Z,62.28
2023-04-08T19:33:55.828Z,62.56
2023-04-08T19:36:22.821Z,62.59
2023-04-08T19:38:49.654Z,62.33
2023-04-08T19:41:16.814Z,62.94
2023-04-08T19:43:43.756Z,62.96
2023-04-08T19:46:10.738Z,62.92
2023-04-08T19:48:38.067Z,63.13
2023-04-08T19:51:05.143Z,63.28
2023-04-08T19:53:32.321Z,63.07
2023-04-08T19:56:02.247Z,63.18
2023-04-08T19:58:29.197Z,62.89
2023-04-08T20:00:56.525Z,63.21
2023-04-08T20:03:23.880Z,62.99
2023-04-08T20:05:51.107Z,62.87
2023-04-08T20:08:18.073Z,63.39
2023-04-08T20:10:46.455Z,63.13
2023-04-08T20:13:14.667Z,63.43
2023-04-08T20:15:41.955Z,63.83
2023-04-08T20:18:09.234Z,63.43
2023-04-08T20:20:36.147Z,63.86
2023-04-08T20:23:02.974Z,63.69
2023-04-08T20:25:29.995Z,63.96
2023-04-08T20:27:57.334Z,63.72
2023-04-08T20:30:24.136Z,63.74
2023-04-08T20:32:51.073Z,63.69
2023-04-08T20:35:18.470Z,63.57
2023-04-08T20:37:46.161Z,63.60
2023-04-08T20:40:13.377Z,63.57
2023-04-08T20:42:40.313Z,63.84
2023-04-08T20:45:08.210Z,63.76
2023-04-08T20:47:35.599Z,64.19
2023-04-08T20:50:03.560Z,63.90
2023-04-08T20:52:30.578Z,64.02
2023-04-08T20:54:57.501Z,63.82
2023-04-08T20:57:24.333Z,63.79
2023-04-08T20:59:51.384Z,64.01
2023-04-08T21:02:20.877Z,63.81
2023-04-08T21:04:47.992Z,64.35
2023-04-08T21:07:14.856Z,64.62
2023-04-08T21:09:41.684Z,64.54
2023-04-08T21:12:08.627Z,64.24
2023-04-08T21:14:35.519Z,64.02
2023-04-08T21:17:02.417Z,64.35
2023-04-08T21:19:29.269Z,64.15
2023-04-08T21:21:56.115Z,64.27
2023-04-08T21:24:22.998Z,64.13
2023-04-08T21:26:49.820Z,64.34
2023-04-08T21:29:16.699Z,64.42
2023-04-08T21:31:43.580Z,64.54
2023-04-08T21:34:10.545Z,64.11
2023-04-08T21:36:37.541Z,64.12
2023-04-08T21:39:04.440Z,64.40
2023-04-08T21:41:31.588Z,64.77
2023-04-08T21:43:58.469Z,64.76
2023-04-08T21:46:25.692Z,64.92
2023-04-08T21:48:52.942Z,64.88
2023-04-08T21:51:20.095Z,65.05
2023-04-08T21:53:46.930Z,65.52
2023-04-08T21:56:14.006Z,65.54
2023-04-08T21:58:41.102Z,65.53
2023-04-08T22:01:08.160Z,65.35
2023-04-08T22:03:35.252Z,65.71
2023-04-08T22:06:02.149Z,65.66
2023-04-08T22:08:29.030Z,65.82
2023-04-08T22:10:55.837Z,65.79
2023-04-08T22:13:22.693Z,65.69
2023-04-08T22:15:49.481Z,65.74
2023-04-08T22:18:16.325Z,65.68
2023-04-08T22:20:43.146Z,65.97
2023-04-08T22:23:10.052Z,65.78
2023-04-08T22:25:36.837Z,65.67
2023-04-08T22:28:03.663Z,65.37
2023-04-08T22:30:30.972Z,64.90
2023-04-08T22:32:57.915Z,65.90
2023-04-08T22:35:24.814Z,66.10
2023-04-08T22:37:51.794Z,66.16
2023-04-08T22:40:18.621Z,66.54
2023-04-08T22:42:45.509Z,66.78
2023-04-08T22:45:12.331Z,66.63
2023-04-08T22:47:39.219Z,66.26
2023-04-08T22:50:06.973Z,66.46
2023-04-08T22:52:33.856Z,65.69
2023-04-08T22:55:00.799Z,65.51
2023-04-08T22:57:27.619Z,66.16
2023-04-08T22:59:54.427Z,66.11
2023-04-08T23:02:21.511Z,66.24
2023-04-08T23:04:48.591Z,66.21
2023-04-08T23:07:15.560Z,66.39
2023-04-08T23:09:42.378Z,66.45
2023-04-08T23:12:09.203Z,66.24
2023-04-08T23:14:36.058Z,66.36
2023-04-08T23:17:05.410Z,66.27
2023-04-08T23:19:32.380Z,66.07
2023-04-08T23:21:59.208Z,65.88
2023-04-08T23:24:26.082Z,66.03
2023-04-08T23:26:52.903Z,66.32
2023-04-08T23:29:19.721Z,66.11
2023-04-08T23:31:46.544Z,66.31
2023-04-08T23:34:13.353Z,66.43
2023-04-08T23:36:40.289Z,65.97
2023-04-08T23:39:07.128Z,66.27
2023-04-08T23:41:34.082Z,66.12
2023-04-08T23:44:00.922Z,66.24
2023-04-08T23:46:27.815Z,66.11
2023-04-08T23:48:54.797Z,65.93
2023-04-08T23:51:21.735Z,66.02
2023-04-08T23:53:48.593Z,66.33
2023-04-08T23:56:15.653Z,66.81
2023-04-08T23:58:42.499Z,66.90
